Kure, Japan
Current Conditions -  °F | °C
As of 4:55 AM on Thursday 18 Dec 2014 (Local Time) from RJOI Reporting Station
Snow Showers Snow Showers  
Wind Chill: 26°   Ceiling: Unl
Heat Index: 34°   Visibility: 6mi
Dew Point: 24°   Wind: 10mph
Humidity: 67%   Direction: 240°WSW
Pressure: 30.2"   Gusts: NA
Location:  34.25°N, 132.56°E
Report Text: RJOI 171955Z 24009KT 9999 -SHSN FEW015 SCT025 01/M04 A3020 RMK SLP227 P0000 T00111044
Loading
Personal Weather Stations






























Interactive Weather Map New forecast layout! Learn more

10-Day Weather Forecast

Advertisements
Track Severe Weather on mobile